TimeEDT,TemperatureF,Dew PointF,Humidity,Sea Level PressureIn,VisibilityMPH,Wind Direction,Wind SpeedMPH,Gust SpeedMPH,PrecipitationIn,Events,Conditions,WindDirDegrees,DateUTC
12:53 AM,55.0,53.1,93,30.13,8.0,Calm,Calm,-,N/A,,Clear,0,2013-09-18 04:53:00
1:53 AM,55.9,55.0,97,30.13,9.0,Calm,Calm,-,N/A,,Clear,0,2013-09-18 05:53:00
2:53 AM,57.0,55.0,93,30.13,10.0,Calm,Calm,-,N/A,,Clear,0,2013-09-18 06:53:00
3:53 AM,57.9,55.9,93,30.11,10.0,Calm,Calm,-,N/A,,Scattered Clouds,0,2013-09-18 07:53:00
4:53 AM,59.0,55.9,90,30.11,9.0,Calm,Calm,-,N/A,,Scattered Clouds,0,2013-09-18 08:53:00
5:53 AM,59.0,57.0,93,30.11,10.0,Calm,Calm,-,N/A,,Scattered Clouds,0,2013-09-18 09:53:00
6:53 AM,59.0,57.0,93,30.12,10.0,Calm,Calm,-,0.00,,Partly Cloudy,0,2013-09-18 10:53:00
7:53 AM,57.9,57.0,97,30.14,5.0,Calm,Calm,-,0.00,,Partly Cloudy,0,2013-09-18 11:53:00
8:53 AM,62.1,57.0,84,30.14,10.0,Calm,Calm,-,N/A,,Overcast,0,2013-09-18 12:53:00
9:53 AM,64.0,57.9,80,30.15,10.0,Calm,Calm,-,N/A,,Overcast,0,2013-09-18 13:53:00
10:53 AM,68.0,60.1,76,30.15,10.0,South,3.5,-,N/A,,Overcast,190,2013-09-18 14:53:00
11:53 AM,70.0,61.0,73,30.14,10.0,SW,3.5,-,0.00,Rain,Light Rain,220,2013-09-18 15:53:00
12:53 PM,68.0,63.0,84,30.13,10.0,SW,4.6,-,0.01,,Overcast,230,2013-09-18 16:53:00
1:53 PM,73.9,64.0,71,30.10,10.0,Calm,Calm,-,N/A,,Mostly Cloudy,0,2013-09-18 17:53:00
2:53 PM,78.1,64.0,62,30.08,10.0,South,6.9,-,N/A,,Overcast,190,2013-09-18 18:53:00
3:03 PM,78.8,64.4,61,30.09,10.0,Variable,5.8,-,N/A,,Scattered Clouds,0,2013-09-18 19:03:00
3:53 PM,78.1,64.9,64,30.06,10.0,Variable,4.6,-,N/A,,Scattered Clouds,0,2013-09-18 19:53:00
4:08 PM,78.8,64.4,61,30.07,10.0,South,8.1,-,N/A,,Mostly Cloudy,190,2013-09-18 20:08:00
4:19 PM,78.8,64.4,61,30.07,10.0,SW,8.1,-,N/A,,Mostly Cloudy,230,2013-09-18 20:19:00
4:53 PM,77.0,64.9,66,30.05,10.0,SSW,8.1,-,N/A,,Mostly Cloudy,200,2013-09-18 20:53:00
5:53 PM,75.9,64.9,69,30.05,10.0,SW,5.8,-,N/A,,Overcast,220,2013-09-18 21:53:00
6:53 PM,75.0,64.9,71,30.05,10.0,South,6.9,-,N/A,,Partly Cloudy,190,2013-09-18 22:53:00
7:53 PM,70.0,64.9,84,30.05,10.0,South,4.6,-,N/A,,Clear,180,2013-09-18 23:53:00
8:53 PM,70.0,66.0,87,30.06,10.0,SSE,3.5,-,N/A,,Clear,150,2013-09-19 00:53:00
9:53 PM,66.9,64.9,93,30.06,8.0,South,3.5,-,N/A,,Clear,170,2013-09-19 01:53:00
10:53 PM,69.1,66.0,90,30.06,6.0,South,4.6,-,N/A,,Clear,170,2013-09-19 02:53:00
11:53 PM,69.1,66.0,90,30.05,6.0,SSE,5.8,-,N/A,,Clear,160,2013-09-19 03:53:00